sensor_id;sensor_type;location;lat;lon;timestamp;P1;durP1;ratioP1;P2;durP2;ratioP2
4198;SDS011;2113;50.946;14.610;2022-11-10T00:01:40;20.70;;;12.82;;
4198;SDS011;2113;50.946;14.610;2022-11-10T00:04:26;26.15;;;12.90;;
4198;SDS011;2113;50.946;14.610;2022-11-10T00:07:13;20.40;;;13.13;;
4198;SDS011;2113;50.946;14.610;2022-11-10T00:10:00;21.50;;;11.85;;
4198;SDS011;2113;50.946;14.610;2022-11-10T00:12:48;19.63;;;11.75;;
4198;SDS011;2113;50.946;14.610;2022-11-10T00:15:38;18.88;;;12.25;;
4198;SDS011;2113;50.946;14.610;2022-11-10T00:18:42;17.65;;;11.68;;
4198;SDS011;2113;50.946;14.610;2022-11-10T00:21:30;19.17;;;11.93;;
4198;SDS011;2113;50.946;14.610;2022-11-10T00:24:17;20.25;;;11.65;;
4198;SDS011;2113;50.946;14.610;2022-11-10T00:27:04;17.13;;;11.43;;
4198;SDS011;2113;50.946;14.610;2022-11-10T00:29:50;22.08;;;13.07;;
4198;SDS011;2113;50.946;14.610;2022-11-10T00:32:38;18.95;;;11.73;;
4198;SDS011;2113;50.946;14.610;2022-11-10T00:35:25;19.70;;;12.18;;
4198;SDS011;2113;50.946;14.610;2022-11-10T00:38:11;20.85;;;12.30;;
4198;SDS011;2113;50.946;14.610;2022-11-10T00:40:58;24.02;;;12.75;;
4198;SDS011;2113;50.946;14.610;2022-11-10T00:43:45;20.50;;;13.00;;
4198;SDS011;2113;50.946;14.610;2022-11-10T00:46:32;16.55;;;11.25;;
4198;SDS011;2113;50.946;14.610;2022-11-10T00:49:20;24.75;;;12.98;;
4198;SDS011;2113;50.946;14.610;2022-11-10T00:52:07;22.67;;;13.63;;
4198;SDS011;2113;50.946;14.610;2022-11-10T00:54:53;17.65;;;12.25;;
4198;SDS011;2113;50.946;14.610;2022-11-10T00:57:40;18.73;;;10.70;;
4198;SDS011;2113;50.946;14.610;2022-11-10T01:00:27;20.02;;;12.07;;
4198;SDS011;2113;50.946;14.610;2022-11-10T01:03:13;21.42;;;11.50;;
4198;SDS011;2113;50.946;14.610;2022-11-10T01:06:04;23.58;;;12.20;;
4198;SDS011;2113;50.946;14.610;2022-11-10T01:08:52;20.60;;;12.30;;
4198;SDS011;2113;50.946;14.610;2022-11-10T01:11:39;20.70;;;12.10;;
4198;SDS011;2113;50.946;14.610;2022-11-10T01:14:26;18.45;;;12.93;;
4198;SDS011;2113;50.946;14.610;2022-11-10T01:17:13;17.45;;;11.55;;
4198;SDS011;2113;50.946;14.610;2022-11-10T01:20:00;23.60;;;12.88;;
4198;SDS011;2113;50.946;14.610;2022-11-10T01:22:48;18.73;;;11.75;;
4198;SDS011;2113;50.946;14.610;2022-11-10T01:25:34;17.58;;;11.18;;
4198;SDS011;2113;50.946;14.610;2022-11-10T01:28:21;19.13;;;12.02;;
4198;SDS011;2113;50.946;14.610;2022-11-10T01:31:09;21.67;;;12.07;;
4198;SDS011;2113;50.946;14.610;2022-11-10T01:33:57;19.00;;;11.70;;
4198;SDS011;2113;50.946;14.610;2022-11-10T01:36:44;22.42;;;13.07;;
4198;SDS011;2113;50.946;14.610;2022-11-10T01:39:32;23.10;;;14.45;;
4198;SDS011;2113;50.946;14.610;2022-11-10T01:42:23;20.55;;;12.30;;
4198;SDS011;2113;50.946;14.610;2022-11-10T01:48:31;25.90;;;14.07;;
4198;SDS011;2113;50.946;14.610;2022-11-10T01:51:22;26.52;;;15.98;;
4198;SDS011;2113;50.946;14.610;2022-11-10T01:54:13;22.27;;;14.27;;
4198;SDS011;2113;50.946;14.610;2022-11-10T01:57:05;22.25;;;14.00;;
4198;SDS011;2113;50.946;14.610;2022-11-10T01:59:54;23.15;;;13.55;;
4198;SDS011;2113;50.946;14.610;2022-11-10T02:02:42;22.00;;;13.98;;
4198;SDS011;2113;50.946;14.610;2022-11-10T02:05:33;21.98;;;13.27;;
4198;SDS011;2113;50.946;14.610;2022-11-10T02:08:21;24.35;;;14.60;;
4198;SDS011;2113;50.946;14.610;2022-11-10T02:11:10;22.80;;;12.63;;
4198;SDS011;2113;50.946;14.610;2022-11-10T02:13:59;27.92;;;15.90;;
4198;SDS011;2113;50.946;14.610;2022-11-10T02:16:46;24.88;;;14.75;;
4198;SDS011;2113;50.946;14.610;2022-11-10T02:19:38;23.10;;;14.55;;
4198;SDS011;2113;50.946;14.610;2022-11-10T02:22:27;23.10;;;14.45;;
4198;SDS011;2113;50.946;14.610;2022-11-10T02:25:15;24.73;;;16.13;;
4198;SDS011;2113;50.946;14.610;2022-11-10T02:28:04;24.98;;;15.98;;
4198;SDS011;2113;50.946;14.610;2022-11-10T02:30:52;27.30;;;17.23;;
4198;SDS011;2113;50.946;14.610;2022-11-10T02:33:39;26.45;;;16.52;;
4198;SDS011;2113;50.946;14.610;2022-11-10T02:36:26;26.80;;;15.52;;
4198;SDS011;2113;50.946;14.610;2022-11-10T02:39:15;31.35;;;16.70;;
4198;SDS011;2113;50.946;14.610;2022-11-10T02:42:02;27.60;;;16.45;;
4198;SDS011;2113;50.946;14.610;2022-11-10T02:44:49;29.48;;;16.67;;
4198;SDS011;2113;50.946;14.610;2022-11-10T02:47:35;27.85;;;17.13;;
4198;SDS011;2113;50.946;14.610;2022-11-10T02:50:22;25.75;;;15.88;;
4198;SDS011;2113;50.946;14.610;2022-11-10T02:53:09;26.98;;;16.98;;
4198;SDS011;2113;50.946;14.610;2022-11-10T02:55:57;30.77;;;18.58;;
4198;SDS011;2113;50.946;14.610;2022-11-10T02:58:44;28.33;;;16.85;;
4198;SDS011;2113;50.946;14.610;2022-11-10T03:01:31;33.10;;;19.02;;
4198;SDS011;2113;50.946;14.610;2022-11-10T03:04:18;25.77;;;16.27;;
4198;SDS011;2113;50.946;14.610;2022-11-10T03:07:04;26.23;;;16.77;;
4198;SDS011;2113;50.946;14.610;2022-11-10T03:09:51;31.13;;;18.77;;
4198;SDS011;2113;50.946;14.610;2022-11-10T03:12:39;33.33;;;19.98;;
4198;SDS011;2113;50.946;14.610;2022-11-10T03:15:26;31.38;;;19.17;;
4198;SDS011;2113;50.946;14.610;2022-11-10T03:18:14;31.95;;;18.42;;
4198;SDS011;2113;50.946;14.610;2022-11-10T03:21:01;32.80;;;18.45;;
4198;SDS011;2113;50.946;14.610;2022-11-10T03:23:47;28.95;;;18.33;;
4198;SDS011;2113;50.946;14.610;2022-11-10T03:26:34;36.83;;;19.08;;
4198;SDS011;2113;50.946;14.610;2022-11-10T03:29:22;36.45;;;17.85;;
4198;SDS011;2113;50.946;14.610;2022-11-10T03:32:08;36.92;;;18.75;;
4198;SDS011;2113;50.946;14.610;2022-11-10T03:34:55;28.67;;;17.20;;
4198;SDS011;2113;50.946;14.610;2022-11-10T03:37:42;34.63;;;18.58;;
4198;SDS011;2113;50.946;14.610;2022-11-10T03:40:29;32.58;;;18.02;;
4198;SDS011;2113;50.946;14.610;2022-11-10T03:43:36;37.78;;;19.13;;
4198;SDS011;2113;50.946;14.610;2022-11-10T03:46:24;35.10;;;18.77;;
4198;SDS011;2113;50.946;14.610;2022-11-10T03:49:11;37.58;;;19.90;;
4198;SDS011;2113;50.946;14.610;2022-11-10T03:51:57;37.67;;;21.05;;
4198;SDS011;2113;50.946;14.610;2022-11-10T03:54:44;39.83;;;19.48;;
4198;SDS011;2113;50.946;14.610;2022-11-10T03:57:31;43.28;;;20.65;;
4198;SDS011;2113;50.946;14.610;2022-11-10T04:00:17;38.67;;;20.60;;
4198;SDS011;2113;50.946;14.610;2022-11-10T04:03:06;38.42;;;21.20;;
4198;SDS011;2113;50.946;14.610;2022-11-10T04:05:52;37.38;;;20.95;;
4198;SDS011;2113;50.946;14.610;2022-11-10T04:08:57;40.90;;;19.92;;
4198;SDS011;2113;50.946;14.610;2022-11-10T04:15:17;41.17;;;20.52;;
4198;SDS011;2113;50.946;14.610;2022-11-10T04:18:23;37.35;;;18.80;;
4198;SDS011;2113;50.946;14.610;2022-11-10T04:21:10;37.17;;;19.17;;
4198;SDS011;2113;50.946;14.610;2022-11-10T04:23:57;39.40;;;20.52;;
4198;SDS011;2113;50.946;14.610;2022-11-10T04:26:44;44.65;;;20.70;;
4198;SDS011;2113;50.946;14.610;2022-11-10T04:29:33;37.45;;;20.50;;
4198;SDS011;2113;50.946;14.610;2022-11-10T04:32:19;43.95;;;20.35;;
4198;SDS011;2113;50.946;14.610;2022-11-10T04:35:08;39.25;;;21.08;;
4198;SDS011;2113;50.946;14.610;2022-11-10T04:37:55;49.28;;;22.98;;
4198;SDS011;2113;50.946;14.610;2022-11-10T04:40:41;41.33;;;21.00;;
4198;SDS011;2113;50.946;14.610;2022-11-10T04:43:28;39.25;;;19.90;;
4198;SDS011;2113;50.946;14.610;2022-11-10T04:46:18;41.85;;;25.58;;
4198;SDS011;2113;50.946;14.610;2022-11-10T04:49:07;43.20;;;20.27;;
4198;SDS011;2113;50.946;14.610;2022-11-10T04:51:56;44.83;;;22.08;;
4198;SDS011;2113;50.946;14.610;2022-11-10T04:54:43;47.42;;;19.20;;
4198;SDS011;2113;50.946;14.610;2022-11-10T04:57:29;42.60;;;19.10;;
4198;SDS011;2113;50.946;14.610;2022-11-10T05:00:16;33.33;;;17.92;;
4198;SDS011;2113;50.946;14.610;2022-11-10T05:03:04;47.17;;;20.30;;
4198;SDS011;2113;50.946;14.610;2022-11-10T05:05:52;36.13;;;20.75;;
4198;SDS011;2113;50.946;14.610;2022-11-10T05:08:41;45.38;;;21.30;;
4198;SDS011;2113;50.946;14.610;2022-11-10T05:11:29;39.53;;;20.40;;
4198;SDS011;2113;50.946;14.610;2022-11-10T05:14:16;35.53;;;19.45;;
4198;SDS011;2113;50.946;14.610;2022-11-10T05:17:03;39.10;;;20.50;;
4198;SDS011;2113;50.946;14.610;2022-11-10T05:19:50;30.20;;;17.38;;
4198;SDS011;2113;50.946;14.610;2022-11-10T05:22:36;34.63;;;18.20;;
4198;SDS011;2113;50.946;14.610;2022-11-10T05:25:24;32.92;;;17.55;;
4198;SDS011;2113;50.946;14.610;2022-11-10T05:28:11;31.27;;;18.05;;
4198;SDS011;2113;50.946;14.610;2022-11-10T05:30:58;30.05;;;16.95;;
4198;SDS011;2113;50.946;14.610;2022-11-10T05:33:45;35.08;;;16.40;;
4198;SDS011;2113;50.946;14.610;2022-11-10T05:36:32;31.13;;;16.80;;
4198;SDS011;2113;50.946;14.610;2022-11-10T05:39:19;32.25;;;18.15;;
4198;SDS011;2113;50.946;14.610;2022-11-10T05:42:06;37.83;;;16.23;;
4198;SDS011;2113;50.946;14.610;2022-11-10T05:44:53;38.47;;;19.02;;
4198;SDS011;2113;50.946;14.610;2022-11-10T05:47:40;31.55;;;17.05;;
4198;SDS011;2113;50.946;14.610;2022-11-10T05:50:27;33.60;;;18.40;;
4198;SDS011;2113;50.946;14.610;2022-11-10T05:53:14;35.60;;;16.83;;
4198;SDS011;2113;50.946;14.610;2022-11-10T05:56:01;43.00;;;18.55;;
4198;SDS011;2113;50.946;14.610;2022-11-10T05:58:50;41.83;;;21.60;;
4198;SDS011;2113;50.946;14.610;2022-11-10T06:01:37;46.78;;;21.25;;
4198;SDS011;2113;50.946;14.610;2022-11-10T06:04:23;36.45;;;18.50;;
4198;SDS011;2113;50.946;14.610;2022-11-10T06:07:10;39.35;;;18.35;;
4198;SDS011;2113;50.946;14.610;2022-11-10T06:09:57;32.90;;;16.83;;
4198;SDS011;2113;50.946;14.610;2022-11-10T06:12:44;31.80;;;16.08;;
4198;SDS011;2113;50.946;14.610;2022-11-10T06:15:33;30.45;;;16.88;;
4198;SDS011;2113;50.946;14.610;2022-11-10T06:18:19;32.85;;;16.58;;
4198;SDS011;2113;50.946;14.610;2022-11-10T06:21:09;28.27;;;15.05;;
4198;SDS011;2113;50.946;14.610;2022-11-10T06:23:56;27.17;;;14.88;;
4198;SDS011;2113;50.946;14.610;2022-11-10T06:26:43;34.22;;;15.90;;
4198;SDS011;2113;50.946;14.610;2022-11-10T06:29:29;25.27;;;14.52;;
4198;SDS011;2113;50.946;14.610;2022-11-10T06:32:18;35.78;;;16.42;;
4198;SDS011;2113;50.946;14.610;2022-11-10T06:35:05;28.88;;;15.23;;
4198;SDS011;2113;50.946;14.610;2022-11-10T06:37:55;27.65;;;14.95;;
4198;SDS011;2113;50.946;14.610;2022-11-10T06:40:44;27.30;;;14.48;;
4198;SDS011;2113;50.946;14.610;2022-11-10T06:43:30;33.80;;;14.63;;
4198;SDS011;2113;50.946;14.610;2022-11-10T06:46:17;31.15;;;14.57;;
4198;SDS011;2113;50.946;14.610;2022-11-10T06:49:05;31.02;;;14.98;;
4198;SDS011;2113;50.946;14.610;2022-11-10T06:51:51;31.80;;;16.20;;
4198;SDS011;2113;50.946;14.610;2022-11-10T06:54:38;31.35;;;15.27;;
4198;SDS011;2113;50.946;14.610;2022-11-10T06:57:25;37.67;;;18.58;;
4198;SDS011;2113;50.946;14.610;2022-11-10T07:00:12;35.28;;;16.02;;
4198;SDS011;2113;50.946;14.610;2022-11-10T07:03:00;34.38;;;17.33;;
4198;SDS011;2113;50.946;14.610;2022-11-10T07:05:49;37.47;;;19.30;;
4198;SDS011;2113;50.946;14.610;2022-11-10T07:08:35;40.10;;;21.30;;
4198;SDS011;2113;50.946;14.610;2022-11-10T07:11:22;32.13;;;18.67;;
4198;SDS011;2113;50.946;14.610;2022-11-10T07:14:09;36.55;;;20.15;;
4198;SDS011;2113;50.946;14.610;2022-11-10T07:16:55;32.42;;;19.58;;
4198;SDS011;2113;50.946;14.610;2022-11-10T07:19:42;31.25;;;17.02;;
4198;SDS011;2113;50.946;14.610;2022-11-10T07:22:30;24.58;;;15.48;;
4198;SDS011;2113;50.946;14.610;2022-11-10T07:25:17;23.23;;;14.75;;
4198;SDS011;2113;50.946;14.610;2022-11-10T07:28:04;17.67;;;9.48;;
4198;SDS011;2113;50.946;14.610;2022-11-10T07:30:54;18.27;;;8.45;;
4198;SDS011;2113;50.946;14.610;2022-11-10T07:33:41;14.60;;;8.65;;
4198;SDS011;2113;50.946;14.610;2022-11-10T07:36:33;17.50;;;7.90;;
4198;SDS011;2113;50.946;14.610;2022-11-10T07:39:21;13.82;;;7.68;;
4198;SDS011;2113;50.946;14.610;2022-11-10T07:42:07;14.90;;;8.15;;
4198;SDS011;2113;50.946;14.610;2022-11-10T07:44:54;22.77;;;7.80;;
4198;SDS011;2113;50.946;14.610;2022-11-10T07:47:41;15.45;;;6.60;;
4198;SDS011;2113;50.946;14.610;2022-11-10T07:50:28;10.45;;;6.35;;
4198;SDS011;2113;50.946;14.610;2022-11-10T07:53:16;12.68;;;6.80;;
4198;SDS011;2113;50.946;14.610;2022-11-10T07:56:06;9.25;;;5.47;;
4198;SDS011;2113;50.946;14.610;2022-11-10T07:58:52;12.90;;;6.50;;
4198;SDS011;2113;50.946;14.610;2022-11-10T08:01:39;13.10;;;7.15;;
4198;SDS011;2113;50.946;14.610;2022-11-10T08:04:27;13.30;;;7.45;;
4198;SDS011;2113;50.946;14.610;2022-11-10T08:07:14;15.10;;;6.53;;
4198;SDS011;2113;50.946;14.610;2022-11-10T08:10:01;8.98;;;6.50;;
4198;SDS011;2113;50.946;14.610;2022-11-10T08:12:53;15.20;;;7.03;;
4198;SDS011;2113;50.946;14.610;2022-11-10T08:15:40;12.40;;;6.10;;
4198;SDS011;2113;50.946;14.610;2022-11-10T08:18:27;12.85;;;6.90;;
4198;SDS011;2113;50.946;14.610;2022-11-10T08:21:20;10.93;;;6.50;;
4198;SDS011;2113;50.946;14.610;2022-11-10T08:24:06;14.48;;;7.32;;
4198;SDS011;2113;50.946;14.610;2022-11-10T08:26:54;22.77;;;8.50;;
4198;SDS011;2113;50.946;14.610;2022-11-10T08:29:43;11.98;;;6.18;;
4198;SDS011;2113;50.946;14.610;2022-11-10T08:32:29;14.85;;;7.15;;
4198;SDS011;2113;50.946;14.610;2022-11-10T08:35:16;16.42;;;7.55;;
4198;SDS011;2113;50.946;14.610;2022-11-10T08:38:06;13.63;;;6.03;;
4198;SDS011;2113;50.946;14.610;2022-11-10T08:40:54;13.57;;;7.00;;
4198;SDS011;2113;50.946;14.610;2022-11-10T08:43:42;14.40;;;7.82;;
4198;SDS011;2113;50.946;14.610;2022-11-10T08:46:30;11.18;;;6.68;;
4198;SDS011;2113;50.946;14.610;2022-11-10T08:49:16;16.70;;;6.97;;
4198;SDS011;2113;50.946;14.610;2022-11-10T08:52:05;12.73;;;6.10;;
4198;SDS011;2113;50.946;14.610;2022-11-10T08:54:53;14.68;;;7.07;;
4198;SDS011;2113;50.946;14.610;2022-11-10T08:57:39;13.48;;;7.18;;
4198;SDS011;2113;50.946;14.610;2022-11-10T09:00:26;9.68;;;5.53;;
4198;SDS011;2113;50.946;14.610;2022-11-10T09:03:16;17.27;;;6.63;;
4198;SDS011;2113;50.946;14.610;2022-11-10T09:06:05;12.85;;;6.43;;
4198;SDS011;2113;50.946;14.610;2022-11-10T09:08:52;11.27;;;4.95;;
4198;SDS011;2113;50.946;14.610;2022-11-10T09:11:39;10.23;;;6.47;;
4198;SDS011;2113;50.946;14.610;2022-11-10T09:14:25;9.20;;;6.07;;
4198;SDS011;2113;50.946;14.610;2022-11-10T09:17:11;10.65;;;5.72;;
4198;SDS011;2113;50.946;14.610;2022-11-10T09:20:00;9.90;;;6.00;;
4198;SDS011;2113;50.946;14.610;2022-11-10T09:22:47;10.05;;;5.85;;
4198;SDS011;2113;50.946;14.610;2022-11-10T09:25:33;7.65;;;4.38;;
4198;SDS011;2113;50.946;14.610;2022-11-10T09:28:21;13.60;;;5.95;;
4198;SDS011;2113;50.946;14.610;2022-11-10T09:31:08;11.88;;;5.38;;
4198;SDS011;2113;50.946;14.610;2022-11-10T09:33:55;8.52;;;5.53;;
4198;SDS011;2113;50.946;14.610;2022-11-10T09:36:46;9.02;;;5.65;;
4198;SDS011;2113;50.946;14.610;2022-11-10T09:39:33;10.68;;;5.55;;
4198;SDS011;2113;50.946;14.610;2022-11-10T09:42:28;8.50;;;5.15;;
4198;SDS011;2113;50.946;14.610;2022-11-10T09:45:21;15.20;;;5.70;;
4198;SDS011;2113;50.946;14.610;2022-11-10T09:48:14;11.52;;;6.40;;
4198;SDS011;2113;50.946;14.610;2022-11-10T09:51:05;14.40;;;5.65;;
4198;SDS011;2113;50.946;14.610;2022-11-10T09:53:56;13.75;;;5.40;;
4198;SDS011;2113;50.946;14.610;2022-11-10T09:56:44;7.47;;;4.53;;
4198;SDS011;2113;50.946;14.610;2022-11-10T09:59:32;8.75;;;4.40;;
4198;SDS011;2113;50.946;14.610;2022-11-10T10:02:21;16.85;;;5.90;;
4198;SDS011;2113;50.946;14.610;2022-11-10T10:08:26;9.00;;;5.30;;
4198;SDS011;2113;50.946;14.610;2022-11-10T10:11:28;10.93;;;4.88;;
4198;SDS011;2113;50.946;14.610;2022-11-10T10:14:38;8.60;;;4.30;;
4198;SDS011;2113;50.946;14.610;2022-11-10T10:17:38;9.02;;;4.20;;
4198;SDS011;2113;50.946;14.610;2022-11-10T10:20:34;9.68;;;6.45;;
4198;SDS011;2113;50.946;14.610;2022-11-10T10:23:30;7.18;;;3.53;;
4198;SDS011;2113;50.946;14.610;2022-11-10T10:26:44;7.15;;;3.78;;
4198;SDS011;2113;50.946;14.610;2022-11-10T10:29:37;7.75;;;4.05;;
4198;SDS011;2113;50.946;14.610;2022-11-10T10:32:29;6.68;;;3.30;;
4198;SDS011;2113;50.946;14.610;2022-11-10T10:35:17;14.65;;;5.00;;
4198;SDS011;2113;50.946;14.610;2022-11-10T10:38:04;16.35;;;3.60;;
4198;SDS011;2113;50.946;14.610;2022-11-10T10:41:01;8.65;;;3.97;;
4198;SDS011;2113;50.946;14.610;2022-11-10T10:43:59;7.03;;;3.35;;
4198;SDS011;2113;50.946;14.610;2022-11-10T10:46:48;11.73;;;5.13;;
4198;SDS011;2113;50.946;14.610;2022-11-10T10:49:37;6.82;;;3.53;;
4198;SDS011;2113;50.946;14.610;2022-11-10T10:52:24;8.23;;;3.85;;
4198;SDS011;2113;50.946;14.610;2022-11-10T10:55:13;10.23;;;3.50;;
4198;SDS011;2113;50.946;14.610;2022-11-10T10:58:01;7.75;;;4.10;;
4198;SDS011;2113;50.946;14.610;2022-11-10T11:00:51;8.75;;;3.38;;
4198;SDS011;2113;50.946;14.610;2022-11-10T11:03:41;11.23;;;4.28;;
4198;SDS011;2113;50.946;14.610;2022-11-10T11:06:29;15.80;;;4.47;;
4198;SDS011;2113;50.946;14.610;2022-11-10T11:09:18;11.98;;;4.15;;
4198;SDS011;2113;50.946;14.610;2022-11-10T11:12:09;7.22;;;3.65;;
4198;SDS011;2113;50.946;14.610;2022-11-10T11:15:09;20.20;;;4.15;;
4198;SDS011;2113;50.946;14.610;2022-11-10T11:18:01;21.55;;;5.38;;
4198;SDS011;2113;50.946;14.610;2022-11-10T11:20:51;10.60;;;3.65;;
4198;SDS011;2113;50.946;14.610;2022-11-10T11:26:58;8.55;;;3.47;;
4198;SDS011;2113;50.946;14.610;2022-11-10T11:33:14;6.20;;;3.95;;
4198;SDS011;2113;50.946;14.610;2022-11-10T11:36:20;10.75;;;4.15;;
4198;SDS011;2113;50.946;14.610;2022-11-10T11:39:19;11.07;;;3.97;;
4198;SDS011;2113;50.946;14.610;2022-11-10T11:42:24;7.90;;;4.30;;
4198;SDS011;2113;50.946;14.610;2022-11-10T11:45:26;11.90;;;4.07;;
4198;SDS011;2113;50.946;14.610;2022-11-10T11:48:31;17.20;;;4.15;;
4198;SDS011;2113;50.946;14.610;2022-11-10T11:51:30;7.50;;;4.13;;
4198;SDS011;2113;50.946;14.610;2022-11-10T11:54:26;8.57;;;4.25;;
4198;SDS011;2113;50.946;14.610;2022-11-10T11:57:16;11.93;;;4.82;;
4198;SDS011;2113;50.946;14.610;2022-11-10T12:00:13;7.95;;;4.00;;
4198;SDS011;2113;50.946;14.610;2022-11-10T12:03:07;11.63;;;3.70;;
4198;SDS011;2113;50.946;14.610;2022-11-10T12:06:15;6.38;;;2.90;;
4198;SDS011;2113;50.946;14.610;2022-11-10T12:09:14;8.05;;;3.25;;
4198;SDS011;2113;50.946;14.610;2022-11-10T12:12:13;8.30;;;3.45;;
4198;SDS011;2113;50.946;14.610;2022-11-10T12:15:23;5.97;;;3.00;;
4198;SDS011;2113;50.946;14.610;2022-11-10T12:18:21;10.98;;;2.80;;
4198;SDS011;2113;50.946;14.610;2022-11-10T12:21:19;5.45;;;2.47;;
4198;SDS011;2113;50.946;14.610;2022-11-10T12:24:18;15.55;;;3.30;;
4198;SDS011;2113;50.946;14.610;2022-11-10T12:27:39;15.10;;;3.63;;
4198;SDS011;2113;50.946;14.610;2022-11-10T12:30:29;12.98;;;2.85;;
4198;SDS011;2113;50.946;14.610;2022-11-10T12:33:29;9.20;;;3.00;;
4198;SDS011;2113;50.946;14.610;2022-11-10T12:36:22;10.75;;;2.50;;
4198;SDS011;2113;50.946;14.610;2022-11-10T12:39:14;4.80;;;2.20;;
4198;SDS011;2113;50.946;14.610;2022-11-10T12:42:04;5.68;;;2.38;;
4198;SDS011;2113;50.946;14.610;2022-11-10T12:44:58;7.70;;;2.65;;
4198;SDS011;2113;50.946;14.610;2022-11-10T12:47:47;4.75;;;1.70;;
4198;SDS011;2113;50.946;14.610;2022-11-10T12:50:37;8.43;;;1.80;;
4198;SDS011;2113;50.946;14.610;2022-11-10T12:53:35;3.78;;;2.00;;
4198;SDS011;2113;50.946;14.610;2022-11-10T12:56:27;8.57;;;2.55;;
4198;SDS011;2113;50.946;14.610;2022-11-10T12:59:25;11.50;;;2.40;;
4198;SDS011;2113;50.946;14.610;2022-11-10T13:02:17;5.95;;;2.25;;
4198;SDS011;2113;50.946;14.610;2022-11-10T13:08:18;8.50;;;2.55;;
4198;SDS011;2113;50.946;14.610;2022-11-10T13:11:21;8.63;;;2.47;;
4198;SDS011;2113;50.946;14.610;2022-11-10T13:14:20;7.25;;;2.22;;
4198;SDS011;2113;50.946;14.610;2022-11-10T13:17:09;10.52;;;2.05;;
4198;SDS011;2113;50.946;14.610;2022-11-10T13:26:57;7.88;;;2.00;;
4198;SDS011;2113;50.946;14.610;2022-11-10T13:29:54;8.15;;;2.35;;
4198;SDS011;2113;50.946;14.610;2022-11-10T13:32:42;7.50;;;1.40;;
4198;SDS011;2113;50.946;14.610;2022-11-10T13:35:43;10.00;;;2.08;;
4198;SDS011;2113;50.946;14.610;2022-11-10T13:38:39;5.25;;;1.70;;
4198;SDS011;2113;50.946;14.610;2022-11-10T13:41:29;9.70;;;2.00;;
4198;SDS011;2113;50.946;14.610;2022-11-10T13:44:23;10.75;;;1.70;;
4198;SDS011;2113;50.946;14.610;2022-11-10T13:47:17;7.50;;;1.73;;
4198;SDS011;2113;50.946;14.610;2022-11-10T13:50:27;7.32;;;1.80;;
4198;SDS011;2113;50.946;14.610;2022-11-10T13:53:23;3.00;;;1.55;;
4198;SDS011;2113;50.946;14.610;2022-11-10T13:56:20;3.60;;;1.58;;
4198;SDS011;2113;50.946;14.610;2022-11-10T13:59:20;4.13;;;1.70;;
4198;SDS011;2113;50.946;14.610;2022-11-10T14:08:41;5.50;;;1.80;;
4198;SDS011;2113;50.946;14.610;2022-11-10T14:11:34;6.10;;;2.55;;
4198;SDS011;2113;50.946;14.610;2022-11-10T14:14:26;5.70;;;1.90;;
4198;SDS011;2113;50.946;14.610;2022-11-10T14:17:21;5.38;;;1.80;;
4198;SDS011;2113;50.946;14.610;2022-11-10T14:20:18;5.10;;;2.17;;
4198;SDS011;2113;50.946;14.610;2022-11-10T14:23:10;7.10;;;1.85;;
4198;SDS011;2113;50.946;14.610;2022-11-10T14:26:10;9.07;;;2.08;;
4198;SDS011;2113;50.946;14.610;2022-11-10T14:32:15;4.90;;;1.75;;
4198;SDS011;2113;50.946;14.610;2022-11-10T14:35:14;6.00;;;2.20;;
4198;SDS011;2113;50.946;14.610;2022-11-10T14:38:12;2.70;;;1.90;;
4198;SDS011;2113;50.946;14.610;2022-11-10T14:41:13;10.73;;;2.90;;
4198;SDS011;2113;50.946;14.610;2022-11-10T14:44:03;6.53;;;1.90;;
4198;SDS011;2113;50.946;14.610;2022-11-10T14:46:51;7.40;;;2.30;;
4198;SDS011;2113;50.946;14.610;2022-11-10T14:49:38;5.80;;;2.25;;
4198;SDS011;2113;50.946;14.610;2022-11-10T14:52:25;5.90;;;2.70;;
4198;SDS011;2113;50.946;14.610;2022-11-10T14:55:14;5.50;;;3.00;;
4198;SDS011;2113;50.946;14.610;2022-11-10T14:58:06;8.15;;;2.53;;
4198;SDS011;2113;50.946;14.610;2022-11-10T15:00:57;7.20;;;2.20;;
4198;SDS011;2113;50.946;14.610;2022-11-10T15:03:46;4.68;;;2.03;;
4198;SDS011;2113;50.946;14.610;2022-11-10T15:06:33;7.30;;;1.98;;
4198;SDS011;2113;50.946;14.610;2022-11-10T15:09:22;5.75;;;2.70;;
4198;SDS011;2113;50.946;14.610;2022-11-10T15:12:20;9.57;;;2.58;;
4198;SDS011;2113;50.946;14.610;2022-11-10T15:15:16;6.97;;;2.00;;
4198;SDS011;2113;50.946;14.610;2022-11-10T15:18:06;6.80;;;2.20;;
4198;SDS011;2113;50.946;14.610;2022-11-10T15:21:10;6.60;;;2.78;;
4198;SDS011;2113;50.946;14.610;2022-11-10T15:23:58;8.30;;;2.40;;
4198;SDS011;2113;50.946;14.610;2022-11-10T15:26:48;9.07;;;2.90;;
4198;SDS011;2113;50.946;14.610;2022-11-10T15:29:34;7.47;;;2.53;;
4198;SDS011;2113;50.946;14.610;2022-11-10T15:32:25;10.02;;;2.55;;
4198;SDS011;2113;50.946;14.610;2022-11-10T15:35:25;8.65;;;2.55;;
4198;SDS011;2113;50.946;14.610;2022-11-10T15:38:27;6.80;;;2.70;;
4198;SDS011;2113;50.946;14.610;2022-11-10T15:41:21;6.57;;;2.70;;
4198;SDS011;2113;50.946;14.610;2022-11-10T15:44:13;6.35;;;2.50;;
4198;SDS011;2113;50.946;14.610;2022-11-10T15:47:01;5.70;;;2.90;;
4198;SDS011;2113;50.946;14.610;2022-11-10T15:49:49;6.30;;;2.25;;
4198;SDS011;2113;50.946;14.610;2022-11-10T15:52:36;9.70;;;3.30;;
4198;SDS011;2113;50.946;14.610;2022-11-10T15:55:24;4.00;;;2.17;;
4198;SDS011;2113;50.946;14.610;2022-11-10T15:58:11;5.00;;;2.50;;
4198;SDS011;2113;50.946;14.610;2022-11-10T16:01:05;7.72;;;2.72;;
4198;SDS011;2113;50.946;14.610;2022-11-10T16:03:54;6.57;;;2.60;;
4198;SDS011;2113;50.946;14.610;2022-11-10T16:06:43;14.07;;;3.85;;
4198;SDS011;2113;50.946;14.610;2022-11-10T16:09:30;10.30;;;3.28;;
4198;SDS011;2113;50.946;14.610;2022-11-10T16:12:18;8.80;;;2.50;;
4198;SDS011;2113;50.946;14.610;2022-11-10T16:15:08;5.60;;;3.60;;
4198;SDS011;2113;50.946;14.610;2022-11-10T16:18:02;6.13;;;3.03;;
4198;SDS011;2113;50.946;14.610;2022-11-10T16:20:54;7.10;;;3.35;;
4198;SDS011;2113;50.946;14.610;2022-11-10T16:23:42;6.40;;;3.25;;
4198;SDS011;2113;50.946;14.610;2022-11-10T16:26:29;6.15;;;3.20;;
4198;SDS011;2113;50.946;14.610;2022-11-10T16:29:18;5.20;;;3.13;;
4198;SDS011;2113;50.946;14.610;2022-11-10T16:32:05;10.10;;;3.60;;
4198;SDS011;2113;50.946;14.610;2022-11-10T16:34:52;7.60;;;4.20;;
4198;SDS011;2113;50.946;14.610;2022-11-10T16:37:40;7.82;;;4.38;;
4198;SDS011;2113;50.946;14.610;2022-11-10T16:40:29;9.23;;;4.68;;
4198;SDS011;2113;50.946;14.610;2022-11-10T16:43:16;8.20;;;4.65;;
4198;SDS011;2113;50.946;14.610;2022-11-10T16:46:05;11.40;;;4.65;;
4198;SDS011;2113;50.946;14.610;2022-11-10T16:49:02;10.32;;;4.65;;
4198;SDS011;2113;50.946;14.610;2022-11-10T16:51:52;9.90;;;3.70;;
4198;SDS011;2113;50.946;14.610;2022-11-10T16:54:38;8.90;;;4.63;;
4198;SDS011;2113;50.946;14.610;2022-11-10T16:57:26;9.27;;;4.00;;
4198;SDS011;2113;50.946;14.610;2022-11-10T17:00:14;9.15;;;4.95;;
4198;SDS011;2113;50.946;14.610;2022-11-10T17:03:02;8.15;;;4.25;;
4198;SDS011;2113;50.946;14.610;2022-11-10T17:05:52;8.45;;;4.80;;
4198;SDS011;2113;50.946;14.610;2022-11-10T17:08:39;9.00;;;4.88;;
4198;SDS011;2113;50.946;14.610;2022-11-10T17:11:26;14.45;;;6.65;;
4198;SDS011;2113;50.946;14.610;2022-11-10T17:14:15;16.17;;;9.70;;
4198;SDS011;2113;50.946;14.610;2022-11-10T17:17:02;19.20;;;9.45;;
4198;SDS011;2113;50.946;14.610;2022-11-10T17:19:49;12.20;;;7.20;;
4198;SDS011;2113;50.946;14.610;2022-11-10T17:22:37;9.65;;;4.90;;
4198;SDS011;2113;50.946;14.610;2022-11-10T17:25:25;9.70;;;4.30;;
4198;SDS011;2113;50.946;14.610;2022-11-10T17:28:15;10.80;;;4.25;;
4198;SDS011;2113;50.946;14.610;2022-11-10T17:31:05;8.85;;;4.32;;
4198;SDS011;2113;50.946;14.610;2022-11-10T17:33:52;13.60;;;4.43;;
4198;SDS011;2113;50.946;14.610;2022-11-10T17:36:39;6.45;;;4.22;;
4198;SDS011;2113;50.946;14.610;2022-11-10T17:39:26;9.10;;;3.85;;